Airfield :
LOGIN :

Register | Disclaimer

   EN    FR    IT 

 










Legend :    VFR   Marginal VFR   IFR   Intensive IFR   Very Intensive IFR
Visi :
Ceiling :
>= 8 km
>= 3000ft
5 to 8 km
1000 to 3000 ft
1500m to 5 km
500 to 1000 ft
800 to 1500m
200 to 500 ft
< 800m
< 200 ft
Symbols :   Thunderstorms  Fog  Heavy snow  Heavy precipitations  Wind > 20 kt
SIGMETs :     Misc.  Thunderstorms  Icing  Turbulence  Mountain Waves  Volcanic Ashes






- Airport Elevation : 523 ft
- IATA code : AUF


LFLA - Auxerre

CURRENT METAR :
  • 171200Z AUTO 30009KT 260V330 9999 FEW033/// BKN190/// ///TCU 10/03 Q1014

EXPIRED METARs :
  • 171130Z AUTO 31007KT 260V350 9999 FEW021 SCT110 10/05 Q1014
  • 171100Z AUTO 34003KT 300V030 9999 -RA FEW027/// BKN038/// BKN052/// ///CB 06/05 Q1015
  • 171030Z AUTO 36009KT 9999 -RA SCT021/// BKN031/// BKN038/// ///CB 06/04 Q1015
  • 171000Z AUTO 28005KT 250V320 9999 SCT022/// SCT038/// BKN068/// ///TCU 08/05 Q1015
  • 170930Z AUTO 00000KT 9999 BKN020/// BKN029/// BKN038/// ///CB 08/05 Q1015
  • 170900Z AUTO 00000KT 9999 BKN016 OVC024 08/05 Q1015
  • 170830Z AUTO 00000KT 9999 ////// 07/05 Q1015
  • 170800Z AUTO 00000KT 9999 OVC013 07/04 Q1016
  • 170730Z AUTO 32007KT 290V010 9999 BKN012 OVC094 06/04 Q1016
  • 170700Z AUTO 30006KT 240V350 9999 BKN009 OVC015 06/05 Q1015

TAF N/A



MET'MAP, your aeronautical weather chart ! - Copyright ORBIFLY December 2007 - Disclaimer

ORBIFLY MET'MAP TEAM :

Programming & Development : Alexandra Zaïnal
Original concept : Baudouin d'Aumeries
Technical & hardware support : Manuel Goepfert
Assistance : Marc-Olivier Méhu




SOURCES & CREDITS :

   NOAA